sensor_id;sensor_type;location;lat;lon;timestamp;P1;durP1;ratioP1;P2;durP2;ratioP2
42770;SDS011;28426;42.872;25.314;2023-11-22T00:01:00;16.77;;;10.13;;
42770;SDS011;28426;42.872;25.314;2023-11-22T00:03:31;20.40;;;10.38;;
42770;SDS011;28426;42.872;25.314;2023-11-22T00:06:02;19.20;;;11.02;;
42770;SDS011;28426;42.872;25.314;2023-11-22T00:08:34;15.60;;;10.02;;
42770;SDS011;28426;42.872;25.314;2023-11-22T00:11:05;17.05;;;9.27;;
42770;SDS011;28426;42.872;25.314;2023-11-22T00:13:36;17.35;;;10.07;;
42770;SDS011;28426;42.872;25.314;2023-11-22T00:16:09;16.30;;;8.95;;
42770;SDS011;28426;42.872;25.314;2023-11-22T00:18:40;15.60;;;7.68;;
42770;SDS011;28426;42.872;25.314;2023-11-22T00:21:11;13.52;;;7.88;;
42770;SDS011;28426;42.872;25.314;2023-11-22T00:23:41;13.13;;;8.07;;
42770;SDS011;28426;42.872;25.314;2023-11-22T00:26:12;17.60;;;8.90;;
42770;SDS011;28426;42.872;25.314;2023-11-22T00:28:51;15.13;;;9.43;;
42770;SDS011;28426;42.872;25.314;2023-11-22T00:31:25;15.85;;;8.50;;
42770;SDS011;28426;42.872;25.314;2023-11-22T00:33:55;13.98;;;8.32;;
42770;SDS011;28426;42.872;25.314;2023-11-22T00:36:26;13.88;;;8.10;;
42770;SDS011;28426;42.872;25.314;2023-11-22T00:38:57;15.50;;;8.38;;
42770;SDS011;28426;42.872;25.314;2023-11-22T00:41:30;13.85;;;8.70;;
42770;SDS011;28426;42.872;25.314;2023-11-22T00:44:02;14.93;;;9.43;;
42770;SDS011;28426;42.872;25.314;2023-11-22T00:46:36;15.88;;;9.80;;
42770;SDS011;28426;42.872;25.314;2023-11-22T00:49:07;14.60;;;9.10;;
42770;SDS011;28426;42.872;25.314;2023-11-22T00:51:38;12.43;;;7.80;;
42770;SDS011;28426;42.872;25.314;2023-11-22T00:54:09;21.25;;;8.40;;
42770;SDS011;28426;42.872;25.314;2023-11-22T00:56:40;14.75;;;7.55;;
42770;SDS011;28426;42.872;25.314;2023-11-22T00:59:10;13.80;;;7.43;;
42770;SDS011;28426;42.872;25.314;2023-11-22T01:01:44;15.05;;;6.90;;
42770;SDS011;28426;42.872;25.314;2023-11-22T01:04:15;11.82;;;7.07;;
42770;SDS011;28426;42.872;25.314;2023-11-22T01:06:46;13.15;;;6.80;;
42770;SDS011;28426;42.872;25.314;2023-11-22T01:09:16;12.73;;;6.28;;
42770;SDS011;28426;42.872;25.314;2023-11-22T01:11:47;19.30;;;7.32;;
42770;SDS011;28426;42.872;25.314;2023-11-22T01:14:17;12.95;;;7.18;;
42770;SDS011;28426;42.872;25.314;2023-11-22T01:16:51;16.15;;;8.23;;
42770;SDS011;28426;42.872;25.314;2023-11-22T01:19:22;12.30;;;7.60;;
42770;SDS011;28426;42.872;25.314;2023-11-22T01:21:54;11.88;;;6.90;;
42770;SDS011;28426;42.872;25.314;2023-11-22T01:24:25;15.68;;;6.95;;
42770;SDS011;28426;42.872;25.314;2023-11-22T01:26:56;15.32;;;7.50;;
42770;SDS011;28426;42.872;25.314;2023-11-22T01:29:27;16.45;;;9.20;;
42770;SDS011;28426;42.872;25.314;2023-11-22T01:32:01;18.77;;;9.85;;
42770;SDS011;28426;42.872;25.314;2023-11-22T01:34:32;12.10;;;7.35;;
42770;SDS011;28426;42.872;25.314;2023-11-22T01:37:03;14.25;;;7.35;;
42770;SDS011;28426;42.872;25.314;2023-11-22T01:39:34;12.88;;;7.03;;
42770;SDS011;28426;42.872;25.314;2023-11-22T01:42:05;14.80;;;7.40;;
42770;SDS011;28426;42.872;25.314;2023-11-22T01:44:36;13.55;;;7.63;;
42770;SDS011;28426;42.872;25.314;2023-11-22T01:47:11;16.25;;;7.70;;
42770;SDS011;28426;42.872;25.314;2023-11-22T01:49:42;14.13;;;7.90;;
42770;SDS011;28426;42.872;25.314;2023-11-22T01:52:14;14.93;;;7.43;;
42770;SDS011;28426;42.872;25.314;2023-11-22T01:54:45;16.23;;;8.02;;
42770;SDS011;28426;42.872;25.314;2023-11-22T01:57:16;16.63;;;8.50;;
42770;SDS011;28426;42.872;25.314;2023-11-22T01:59:47;13.30;;;6.93;;
42770;SDS011;28426;42.872;25.314;2023-11-22T02:02:21;15.18;;;8.63;;
42770;SDS011;28426;42.872;25.314;2023-11-22T02:04:52;16.70;;;10.18;;
42770;SDS011;28426;42.872;25.314;2023-11-22T02:07:24;20.13;;;11.40;;
42770;SDS011;28426;42.872;25.314;2023-11-22T02:09:58;18.95;;;11.60;;
42770;SDS011;28426;42.872;25.314;2023-11-22T02:12:30;19.58;;;11.30;;
42770;SDS011;28426;42.872;25.314;2023-11-22T02:15:01;17.15;;;11.07;;
42770;SDS011;28426;42.872;25.314;2023-11-22T02:17:36;20.80;;;11.57;;
42770;SDS011;28426;42.872;25.314;2023-11-22T02:20:07;21.55;;;11.50;;
42770;SDS011;28426;42.872;25.314;2023-11-22T02:22:43;17.10;;;7.80;;
42770;SDS011;28426;42.872;25.314;2023-11-22T02:25:17;12.43;;;7.07;;
42770;SDS011;28426;42.872;25.314;2023-11-22T02:27:48;14.30;;;7.45;;
42770;SDS011;28426;42.872;25.314;2023-11-22T02:30:18;15.25;;;7.38;;
42770;SDS011;28426;42.872;25.314;2023-11-22T02:32:51;15.60;;;7.50;;
42770;SDS011;28426;42.872;25.314;2023-11-22T02:35:21;12.57;;;7.10;;
42770;SDS011;28426;42.872;25.314;2023-11-22T02:37:54;12.48;;;7.60;;
42770;SDS011;28426;42.872;25.314;2023-11-22T02:40:27;16.92;;;8.23;;
42770;SDS011;28426;42.872;25.314;2023-11-22T02:42:58;15.18;;;8.77;;
42770;SDS011;28426;42.872;25.314;2023-11-22T02:45:32;15.50;;;8.30;;
42770;SDS011;28426;42.872;25.314;2023-11-22T02:48:04;17.08;;;8.23;;
42770;SDS011;28426;42.872;25.314;2023-11-22T02:50:36;18.83;;;11.00;;
42770;SDS011;28426;42.872;25.314;2023-11-22T02:53:10;20.58;;;10.02;;
42770;SDS011;28426;42.872;25.314;2023-11-22T02:55:44;16.73;;;9.55;;
42770;SDS011;28426;42.872;25.314;2023-11-22T02:58:15;18.75;;;9.45;;
42770;SDS011;28426;42.872;25.314;2023-11-22T03:00:46;17.38;;;9.57;;
42770;SDS011;28426;42.872;25.314;2023-11-22T03:03:16;13.60;;;8.95;;
42770;SDS011;28426;42.872;25.314;2023-11-22T03:05:47;13.68;;;9.15;;
42770;SDS011;28426;42.872;25.314;2023-11-22T03:08:18;15.95;;;8.90;;
42770;SDS011;28426;42.872;25.314;2023-11-22T03:10:52;14.63;;;8.90;;
42770;SDS011;28426;42.872;25.314;2023-11-22T03:13:23;12.48;;;7.35;;
42770;SDS011;28426;42.872;25.314;2023-11-22T03:15:54;15.85;;;8.20;;
42770;SDS011;28426;42.872;25.314;2023-11-22T03:18:25;13.43;;;7.20;;
42770;SDS011;28426;42.872;25.314;2023-11-22T03:20:56;17.13;;;8.10;;
42770;SDS011;28426;42.872;25.314;2023-11-22T03:23:28;12.48;;;8.10;;
42770;SDS011;28426;42.872;25.314;2023-11-22T03:26:02;12.02;;;7.18;;
42770;SDS011;28426;42.872;25.314;2023-11-22T03:28:33;14.25;;;6.32;;
42770;SDS011;28426;42.872;25.314;2023-11-22T03:31:05;10.60;;;6.03;;
42770;SDS011;28426;42.872;25.314;2023-11-22T03:33:37;10.68;;;5.82;;
42770;SDS011;28426;42.872;25.314;2023-11-22T03:36:08;9.07;;;5.45;;
42770;SDS011;28426;42.872;25.314;2023-11-22T03:38:39;10.82;;;6.43;;
42770;SDS011;28426;42.872;25.314;2023-11-22T03:41:15;13.35;;;6.75;;
42770;SDS011;28426;42.872;25.314;2023-11-22T03:43:48;10.57;;;6.32;;
42770;SDS011;28426;42.872;25.314;2023-11-22T03:46:18;13.30;;;7.57;;
42770;SDS011;28426;42.872;25.314;2023-11-22T03:48:49;14.73;;;6.90;;
42770;SDS011;28426;42.872;25.314;2023-11-22T03:51:20;14.68;;;8.63;;
42770;SDS011;28426;42.872;25.314;2023-11-22T03:53:51;16.52;;;9.07;;
42770;SDS011;28426;42.872;25.314;2023-11-22T03:56:24;18.25;;;9.02;;
42770;SDS011;28426;42.872;25.314;2023-11-22T03:58:55;17.20;;;9.40;;
42770;SDS011;28426;42.872;25.314;2023-11-22T04:01:26;16.45;;;9.18;;
42770;SDS011;28426;42.872;25.314;2023-11-22T04:03:58;17.98;;;8.93;;
42770;SDS011;28426;42.872;25.314;2023-11-22T04:06:28;17.77;;;9.07;;
42770;SDS011;28426;42.872;25.314;2023-11-22T04:09:00;15.68;;;9.48;;
42770;SDS011;28426;42.872;25.314;2023-11-22T04:11:34;14.77;;;9.40;;
42770;SDS011;28426;42.872;25.314;2023-11-22T04:14:06;16.20;;;9.90;;
42770;SDS011;28426;42.872;25.314;2023-11-22T04:16:37;19.63;;;9.40;;
42770;SDS011;28426;42.872;25.314;2023-11-22T04:19:08;15.98;;;9.48;;
42770;SDS011;28426;42.872;25.314;2023-11-22T04:21:39;16.45;;;9.05;;
42770;SDS011;28426;42.872;25.314;2023-11-22T04:24:10;16.38;;;7.70;;
42770;SDS011;28426;42.872;25.314;2023-11-22T04:26:43;14.63;;;8.35;;
42770;SDS011;28426;42.872;25.314;2023-11-22T04:29:15;13.98;;;8.25;;
42770;SDS011;28426;42.872;25.314;2023-11-22T04:31:46;14.65;;;8.15;;
42770;SDS011;28426;42.872;25.314;2023-11-22T04:34:17;14.95;;;8.68;;
42770;SDS011;28426;42.872;25.314;2023-11-22T04:36:47;18.52;;;9.82;;
42770;SDS011;28426;42.872;25.314;2023-11-22T04:39:18;18.05;;;10.13;;
42770;SDS011;28426;42.872;25.314;2023-11-22T04:41:53;17.15;;;9.13;;
42770;SDS011;28426;42.872;25.314;2023-11-22T04:44:23;15.90;;;8.77;;
42770;SDS011;28426;42.872;25.314;2023-11-22T04:46:54;19.05;;;9.30;;
42770;SDS011;28426;42.872;25.314;2023-11-22T04:49:26;13.77;;;9.15;;
42770;SDS011;28426;42.872;25.314;2023-11-22T04:51:59;16.95;;;10.88;;
42770;SDS011;28426;42.872;25.314;2023-11-22T04:54:30;18.52;;;10.00;;
42770;SDS011;28426;42.872;25.314;2023-11-22T04:57:04;19.33;;;9.45;;
42770;SDS011;28426;42.872;25.314;2023-11-22T04:59:34;21.13;;;10.35;;
42770;SDS011;28426;42.872;25.314;2023-11-22T05:02:05;19.90;;;12.02;;
42770;SDS011;28426;42.872;25.314;2023-11-22T05:04:36;23.70;;;10.65;;
42770;SDS011;28426;42.872;25.314;2023-11-22T05:07:07;21.05;;;11.90;;
42770;SDS011;28426;42.872;25.314;2023-11-22T05:09:39;19.60;;;10.73;;
42770;SDS011;28426;42.872;25.314;2023-11-22T05:12:13;19.52;;;10.90;;
42770;SDS011;28426;42.872;25.314;2023-11-22T05:14:45;16.80;;;9.63;;
42770;SDS011;28426;42.872;25.314;2023-11-22T05:17:16;15.57;;;9.50;;
42770;SDS011;28426;42.872;25.314;2023-11-22T05:19:47;20.13;;;10.30;;
42770;SDS011;28426;42.872;25.314;2023-11-22T05:22:18;16.10;;;9.85;;
42770;SDS011;28426;42.872;25.314;2023-11-22T05:24:49;18.48;;;10.32;;
42770;SDS011;28426;42.872;25.314;2023-11-22T05:27:23;23.27;;;10.10;;
42770;SDS011;28426;42.872;25.314;2023-11-22T05:29:55;21.00;;;9.23;;
42770;SDS011;28426;42.872;25.314;2023-11-22T05:32:26;21.83;;;9.82;;
42770;SDS011;28426;42.872;25.314;2023-11-22T05:34:58;19.85;;;10.38;;
42770;SDS011;28426;42.872;25.314;2023-11-22T05:37:30;16.27;;;9.25;;
42770;SDS011;28426;42.872;25.314;2023-11-22T05:40:01;14.57;;;8.60;;
42770;SDS011;28426;42.872;25.314;2023-11-22T05:42:35;20.95;;;10.93;;
42770;SDS011;28426;42.872;25.314;2023-11-22T05:45:06;17.70;;;9.88;;
42770;SDS011;28426;42.872;25.314;2023-11-22T05:47:38;16.67;;;9.95;;
42770;SDS011;28426;42.872;25.314;2023-11-22T05:50:10;20.15;;;11.00;;
42770;SDS011;28426;42.872;25.314;2023-11-22T05:52:41;15.63;;;9.48;;
42770;SDS011;28426;42.872;25.314;2023-11-22T05:55:12;16.55;;;9.85;;
42770;SDS011;28426;42.872;25.314;2023-11-22T05:57:48;13.40;;;8.93;;
42770;SDS011;28426;42.872;25.314;2023-11-22T06:00:19;15.35;;;11.07;;
42770;SDS011;28426;42.872;25.314;2023-11-22T06:02:50;20.23;;;11.25;;
42770;SDS011;28426;42.872;25.314;2023-11-22T06:05:22;17.63;;;10.80;;
42770;SDS011;28426;42.872;25.314;2023-11-22T06:07:53;18.65;;;12.57;;
42770;SDS011;28426;42.872;25.314;2023-11-22T06:10:24;21.65;;;13.88;;
42770;SDS011;28426;42.872;25.314;2023-11-22T06:12:57;22.70;;;12.98;;
42770;SDS011;28426;42.872;25.314;2023-11-22T06:15:28;21.70;;;13.38;;
42770;SDS011;28426;42.872;25.314;2023-11-22T06:17:59;20.20;;;13.38;;
42770;SDS011;28426;42.872;25.314;2023-11-22T06:20:30;23.55;;;15.88;;
42770;SDS011;28426;42.872;25.314;2023-11-22T06:23:01;30.95;;;18.83;;
42770;SDS011;28426;42.872;25.314;2023-11-22T06:25:32;24.02;;;14.48;;
42770;SDS011;28426;42.872;25.314;2023-11-22T06:28:05;25.95;;;15.73;;
42770;SDS011;28426;42.872;25.314;2023-11-22T06:30:36;20.85;;;14.43;;
42770;SDS011;28426;42.872;25.314;2023-11-22T06:33:07;24.65;;;14.30;;
42770;SDS011;28426;42.872;25.314;2023-11-22T06:35:38;24.08;;;14.93;;
42770;SDS011;28426;42.872;25.314;2023-11-22T06:38:09;25.08;;;14.95;;
42770;SDS011;28426;42.872;25.314;2023-11-22T06:40:40;23.42;;;14.38;;
42770;SDS011;28426;42.872;25.314;2023-11-22T06:43:13;24.13;;;15.15;;
42770;SDS011;28426;42.872;25.314;2023-11-22T06:45:45;27.77;;;14.27;;
42770;SDS011;28426;42.872;25.314;2023-11-22T06:48:16;23.75;;;13.55;;
42770;SDS011;28426;42.872;25.314;2023-11-22T06:50:47;25.20;;;15.65;;
42770;SDS011;28426;42.872;25.314;2023-11-22T06:53:19;24.50;;;16.65;;
42770;SDS011;28426;42.872;25.314;2023-11-22T06:55:50;28.00;;;17.02;;
42770;SDS011;28426;42.872;25.314;2023-11-22T06:58:23;28.25;;;20.48;;
42770;SDS011;28426;42.872;25.314;2023-11-22T07:00:54;25.38;;;15.38;;
42770;SDS011;28426;42.872;25.314;2023-11-22T07:03:25;27.70;;;15.77;;
42770;SDS011;28426;42.872;25.314;2023-11-22T07:05:56;29.15;;;17.38;;
42770;SDS011;28426;42.872;25.314;2023-11-22T07:08:27;26.63;;;16.20;;
42770;SDS011;28426;42.872;25.314;2023-11-22T07:10:58;27.30;;;16.02;;
42770;SDS011;28426;42.872;25.314;2023-11-22T07:13:33;28.02;;;17.58;;
42770;SDS011;28426;42.872;25.314;2023-11-22T07:16:06;31.73;;;20.98;;
42770;SDS011;28426;42.872;25.314;2023-11-22T07:18:37;30.60;;;20.27;;
42770;SDS011;28426;42.872;25.314;2023-11-22T07:21:08;27.50;;;16.35;;
42770;SDS011;28426;42.872;25.314;2023-11-22T07:23:39;23.23;;;14.60;;
42770;SDS011;28426;42.872;25.314;2023-11-22T07:26:10;23.25;;;14.50;;
42770;SDS011;28426;42.872;25.314;2023-11-22T07:28:44;20.35;;;13.68;;
42770;SDS011;28426;42.872;25.314;2023-11-22T07:31:15;23.58;;;14.18;;
42770;SDS011;28426;42.872;25.314;2023-11-22T07:33:47;18.52;;;12.63;;
42770;SDS011;28426;42.872;25.314;2023-11-22T07:36:19;23.58;;;12.95;;
42770;SDS011;28426;42.872;25.314;2023-11-22T07:38:50;19.42;;;12.57;;
42770;SDS011;28426;42.872;25.314;2023-11-22T07:41:21;17.80;;;11.57;;
42770;SDS011;28426;42.872;25.314;2023-11-22T07:43:55;18.10;;;11.18;;
42770;SDS011;28426;42.872;25.314;2023-11-22T07:46:26;16.15;;;10.02;;
42770;SDS011;28426;42.872;25.314;2023-11-22T07:48:57;16.88;;;9.88;;
42770;SDS011;28426;42.872;25.314;2023-11-22T07:51:28;16.85;;;10.80;;
42770;SDS011;28426;42.872;25.314;2023-11-22T07:53:59;18.25;;;10.05;;
42770;SDS011;28426;42.872;25.314;2023-11-22T07:56:30;16.00;;;9.80;;
42770;SDS011;28426;42.872;25.314;2023-11-22T07:59:04;14.70;;;9.05;;
42770;SDS011;28426;42.872;25.314;2023-11-22T08:01:35;16.35;;;10.15;;
42770;SDS011;28426;42.872;25.314;2023-11-22T08:04:06;17.45;;;10.07;;
42770;SDS011;28426;42.872;25.314;2023-11-22T08:06:38;16.75;;;10.23;;
42770;SDS011;28426;42.872;25.314;2023-11-22T08:09:09;14.75;;;9.45;;
42770;SDS011;28426;42.872;25.314;2023-11-22T08:11:41;16.45;;;10.75;;
42770;SDS011;28426;42.872;25.314;2023-11-22T08:14:14;19.27;;;10.98;;
42770;SDS011;28426;42.872;25.314;2023-11-22T08:16:50;19.00;;;10.88;;
42770;SDS011;28426;42.872;25.314;2023-11-22T08:19:22;16.95;;;10.98;;
42770;SDS011;28426;42.872;25.314;2023-11-22T08:21:55;15.18;;;10.55;;
42770;SDS011;28426;42.872;25.314;2023-11-22T08:24:26;16.13;;;10.63;;
42770;SDS011;28426;42.872;25.314;2023-11-22T08:26:57;20.85;;;10.65;;
42770;SDS011;28426;42.872;25.314;2023-11-22T08:29:31;18.08;;;11.32;;
42770;SDS011;28426;42.872;25.314;2023-11-22T08:32:03;20.05;;;12.10;;
42770;SDS011;28426;42.872;25.314;2023-11-22T08:34:36;18.17;;;12.35;;
42770;SDS011;28426;42.872;25.314;2023-11-22T08:37:09;21.48;;;12.82;;
42770;SDS011;28426;42.872;25.314;2023-11-22T08:39:53;19.85;;;13.40;;
42770;SDS011;28426;42.872;25.314;2023-11-22T08:42:25;18.98;;;11.85;;
42770;SDS011;28426;42.872;25.314;2023-11-22T08:44:59;19.33;;;11.43;;
42770;SDS011;28426;42.872;25.314;2023-11-22T08:47:30;17.23;;;11.30;;
42770;SDS011;28426;42.872;25.314;2023-11-22T08:50:01;14.90;;;9.93;;
42770;SDS011;28426;42.872;25.314;2023-11-22T08:52:35;15.05;;;10.07;;
42770;SDS011;28426;42.872;25.314;2023-11-22T08:55:18;14.07;;;8.43;;
42770;SDS011;28426;42.872;25.314;2023-11-22T08:57:54;15.82;;;9.73;;
42770;SDS011;28426;42.872;25.314;2023-11-22T09:00:31;17.75;;;10.00;;
42770;SDS011;28426;42.872;25.314;2023-11-22T09:03:04;15.60;;;10.57;;
42770;SDS011;28426;42.872;25.314;2023-11-22T09:05:36;20.65;;;12.00;;
42770;SDS011;28426;42.872;25.314;2023-11-22T09:08:08;18.27;;;12.00;;
42770;SDS011;28426;42.872;25.314;2023-11-22T09:10:51;17.52;;;11.80;;
42770;SDS011;28426;42.872;25.314;2023-11-22T09:13:22;22.65;;;13.35;;
42770;SDS011;28426;42.872;25.314;2023-11-22T09:15:56;18.35;;;12.60;;
42770;SDS011;28426;42.872;25.314;2023-11-22T09:18:27;14.10;;;10.23;;
42770;SDS011;28426;42.872;25.314;2023-11-22T09:20:58;13.57;;;8.95;;
42770;SDS011;28426;42.872;25.314;2023-11-22T09:23:29;12.85;;;8.73;;
42770;SDS011;28426;42.872;25.314;2023-11-22T09:26:01;17.65;;;11.07;;
42770;SDS011;28426;42.872;25.314;2023-11-22T09:28:32;10.10;;;7.38;;
42770;SDS011;28426;42.872;25.314;2023-11-22T09:31:06;13.07;;;7.40;;
42770;SDS011;28426;42.872;25.314;2023-11-22T09:33:40;13.43;;;7.82;;
42770;SDS011;28426;42.872;25.314;2023-11-22T09:36:11;10.75;;;6.90;;
42770;SDS011;28426;42.872;25.314;2023-11-22T09:38:42;13.93;;;8.07;;
42770;SDS011;28426;42.872;25.314;2023-11-22T09:41:14;12.43;;;7.50;;
42770;SDS011;28426;42.872;25.314;2023-11-22T09:43:45;12.68;;;8.18;;
42770;SDS011;28426;42.872;25.314;2023-11-22T09:46:19;13.68;;;8.65;;
42770;SDS011;28426;42.872;25.314;2023-11-22T09:48:52;13.07;;;8.60;;
42770;SDS011;28426;42.872;25.314;2023-11-22T09:51:29;16.65;;;9.40;;
42770;SDS011;28426;42.872;25.314;2023-11-22T09:54:04;13.77;;;9.43;;
42770;SDS011;28426;42.872;25.314;2023-11-22T09:56:39;17.02;;;9.93;;
42770;SDS011;28426;42.872;25.314;2023-11-22T09:59:18;15.60;;;9.07;;
42770;SDS011;28426;42.872;25.314;2023-11-22T10:01:55;16.92;;;8.90;;
42770;SDS011;28426;42.872;25.314;2023-11-22T10:04:26;13.90;;;9.25;;
42770;SDS011;28426;42.872;25.314;2023-11-22T10:06:59;14.57;;;9.00;;
42770;SDS011;28426;42.872;25.314;2023-11-22T10:09:30;14.93;;;9.18;;
42770;SDS011;28426;42.872;25.314;2023-11-22T10:12:05;17.27;;;10.52;;
42770;SDS011;28426;42.872;25.314;2023-11-22T10:14:36;14.88;;;9.50;;
42770;SDS011;28426;42.872;25.314;2023-11-22T10:17:10;13.90;;;9.52;;
42770;SDS011;28426;42.872;25.314;2023-11-22T10:19:42;14.45;;;8.70;;
42770;SDS011;28426;42.872;25.314;2023-11-22T10:22:13;15.68;;;10.25;;
42770;SDS011;28426;42.872;25.314;2023-11-22T10:24:45;16.88;;;10.13;;
42770;SDS011;28426;42.872;25.314;2023-11-22T10:27:16;17.40;;;9.95;;
42770;SDS011;28426;42.872;25.314;2023-11-22T10:29:47;16.48;;;9.93;;
42770;SDS011;28426;42.872;25.314;2023-11-22T10:32:21;18.63;;;10.50;;
42770;SDS011;28426;42.872;25.314;2023-11-22T10:34:52;17.50;;;11.50;;
42770;SDS011;28426;42.872;25.314;2023-11-22T10:37:22;17.33;;;11.82;;
42770;SDS011;28426;42.872;25.314;2023-11-22T10:39:53;17.73;;;11.82;;
42770;SDS011;28426;42.872;25.314;2023-11-22T10:42:24;21.30;;;11.30;;
42770;SDS011;28426;42.872;25.314;2023-11-22T10:44:56;20.88;;;12.25;;
42770;SDS011;28426;42.872;25.314;2023-11-22T10:47:34;16.42;;;10.95;;
42770;SDS011;28426;42.872;25.314;2023-11-22T10:50:09;17.17;;;11.52;;
42770;SDS011;28426;42.872;25.314;2023-11-22T10:52:41;18.92;;;12.90;;
42770;SDS011;28426;42.872;25.314;2023-11-22T10:55:14;18.80;;;12.52;;
42770;SDS011;28426;42.872;25.314;2023-11-22T10:57:47;19.15;;;12.45;;
42770;SDS011;28426;42.872;25.314;2023-11-22T11:00:23;20.10;;;12.82;;
42770;SDS011;28426;42.872;25.314;2023-11-22T11:02:58;19.25;;;12.05;;
42770;SDS011;28426;42.872;25.314;2023-11-22T11:05:31;18.20;;;11.80;;
42770;SDS011;28426;42.872;25.314;2023-11-22T11:08:06;17.67;;;12.27;;
42770;SDS011;28426;42.872;25.314;2023-11-22T11:10:40;18.17;;;11.82;;
42770;SDS011;28426;42.872;25.314;2023-11-22T11:13:13;18.58;;;11.98;;
42770;SDS011;28426;42.872;25.314;2023-11-22T11:15:44;17.00;;;11.38;;
42770;SDS011;28426;42.872;25.314;2023-11-22T11:18:18;16.50;;;12.13;;
42770;SDS011;28426;42.872;25.314;2023-11-22T11:20:51;17.58;;;10.57;;
42770;SDS011;28426;42.872;25.314;2023-11-22T11:23:23;17.77;;;11.45;;
42770;SDS011;28426;42.872;25.314;2023-11-22T11:25:55;15.15;;;9.95;;
42770;SDS011;28426;42.872;25.314;2023-11-22T11:28:28;22.05;;;11.77;;
42770;SDS011;28426;42.872;25.314;2023-11-22T11:31:13;17.48;;;11.73;;
42770;SDS011;28426;42.872;25.314;2023-11-22T11:33:56;18.52;;;11.52;;
42770;SDS011;28426;42.872;25.314;2023-11-22T11:36:29;17.38;;;10.95;;
42770;SDS011;28426;42.872;25.314;2023-11-22T11:39:01;16.17;;;11.57;;
42770;SDS011;28426;42.872;25.314;2023-11-22T11:41:38;17.40;;;11.05;;
42770;SDS011;28426;42.872;25.314;2023-11-22T11:44:09;15.95;;;10.98;;
42770;SDS011;28426;42.872;25.314;2023-11-22T11:46:41;16.48;;;11.50;;
42770;SDS011;28426;42.872;25.314;2023-11-22T11:49:14;18.27;;;11.88;;
42770;SDS011;28426;42.872;25.314;2023-11-22T11:51:45;16.35;;;11.93;;
42770;SDS011;28426;42.872;25.314;2023-11-22T11:54:20;17.92;;;12.88;;
42770;SDS011;28426;42.872;25.314;2023-11-22T11:56:51;17.52;;;12.02;;
42770;SDS011;28426;42.872;25.314;2023-11-22T11:59:22;17.35;;;12.10;;
42770;SDS011;28426;42.872;25.314;2023-11-22T12:01:53;18.98;;;12.35;;
42770;SDS011;28426;42.872;25.314;2023-11-22T12:04:28;17.35;;;11.05;;
42770;SDS011;28426;42.872;25.314;2023-11-22T12:06:59;17.25;;;11.52;;
42770;SDS011;28426;42.872;25.314;2023-11-22T12:09:29;19.08;;;11.90;;
42770;SDS011;28426;42.872;25.314;2023-11-22T12:12:03;20.25;;;13.75;;
42770;SDS011;28426;42.872;25.314;2023-11-22T12:14:34;22.38;;;13.68;;
42770;SDS011;28426;42.872;25.314;2023-11-22T12:17:05;18.00;;;13.05;;
42770;SDS011;28426;42.872;25.314;2023-11-22T12:19:39;17.92;;;12.20;;
42770;SDS011;28426;42.872;25.314;2023-11-22T12:22:10;20.98;;;13.13;;
42770;SDS011;28426;42.872;25.314;2023-11-22T12:24:43;19.15;;;11.65;;
42770;SDS011;28426;42.872;25.314;2023-11-22T12:27:14;17.45;;;12.20;;
42770;SDS011;28426;42.872;25.314;2023-11-22T12:29:45;18.05;;;12.25;;
42770;SDS011;28426;42.872;25.314;2023-11-22T12:32:17;16.45;;;12.30;;
42770;SDS011;28426;42.872;25.314;2023-11-22T12:34:56;21.58;;;12.75;;
42770;SDS011;28426;42.872;25.314;2023-11-22T12:37:28;16.17;;;10.45;;
42770;SDS011;28426;42.872;25.314;2023-11-22T12:39:59;17.58;;;11.90;;
42770;SDS011;28426;42.872;25.314;2023-11-22T12:42:46;18.80;;;12.52;;
42770;SDS011;28426;42.872;25.314;2023-11-22T12:45:20;18.27;;;13.20;;
42770;SDS011;28426;42.872;25.314;2023-11-22T12:47:51;20.00;;;12.43;;
42770;SDS011;28426;42.872;25.314;2023-11-22T12:50:31;20.92;;;13.60;;
42770;SDS011;28426;42.872;25.314;2023-11-22T12:53:09;18.52;;;13.10;;
42770;SDS011;28426;42.872;25.314;2023-11-22T12:55:44;20.58;;;14.30;;
42770;SDS011;28426;42.872;25.314;2023-11-22T12:58:16;21.55;;;15.27;;
42770;SDS011;28426;42.872;25.314;2023-11-22T13:00:47;22.58;;;14.63;;
42770;SDS011;28426;42.872;25.314;2023-11-22T13:03:25;23.00;;;14.73;;
42770;SDS011;28426;42.872;25.314;2023-11-22T13:05:59;28.25;;;16.23;;
42770;SDS011;28426;42.872;25.314;2023-11-22T13:08:31;25.77;;;15.88;;
42770;SDS011;28426;42.872;25.314;2023-11-22T13:11:03;23.80;;;14.68;;
42770;SDS011;28426;42.872;25.314;2023-11-22T13:13:34;21.10;;;12.70;;
42770;SDS011;28426;42.872;25.314;2023-11-22T13:16:06;21.58;;;14.38;;
42770;SDS011;28426;42.872;25.314;2023-11-22T13:18:37;23.02;;;15.63;;
42770;SDS011;28426;42.872;25.314;2023-11-22T13:21:10;24.10;;;16.42;;
42770;SDS011;28426;42.872;25.314;2023-11-22T13:23:41;24.98;;;16.80;;
42770;SDS011;28426;42.872;25.314;2023-11-22T13:26:12;25.67;;;16.27;;
42770;SDS011;28426;42.872;25.314;2023-11-22T13:28:43;22.40;;;14.70;;
42770;SDS011;28426;42.872;25.314;2023-11-22T13:31:14;23.92;;;16.95;;
42770;SDS011;28426;42.872;25.314;2023-11-22T13:33:45;24.77;;;16.08;;
42770;SDS011;28426;42.872;25.314;2023-11-22T13:36:18;22.02;;;14.75;;
42770;SDS011;28426;42.872;25.314;2023-11-22T13:38:49;24.63;;;14.75;;
42770;SDS011;28426;42.872;25.314;2023-11-22T13:41:22;24.00;;;14.68;;
42770;SDS011;28426;42.872;25.314;2023-11-22T13:43:53;24.33;;;15.98;;
42770;SDS011;28426;42.872;25.314;2023-11-22T13:46:24;25.63;;;15.48;;
42770;SDS011;28426;42.872;25.314;2023-11-22T13:48:55;27.40;;;16.38;;
42770;SDS011;28426;42.872;25.314;2023-11-22T13:51:29;21.52;;;14.95;;
42770;SDS011;28426;42.872;25.314;2023-11-22T13:53:59;26.23;;;15.00;;
42770;SDS011;28426;42.872;25.314;2023-11-22T13:56:30;25.38;;;16.60;;
42770;SDS011;28426;42.872;25.314;2023-11-22T13:59:01;29.65;;;15.20;;
42770;SDS011;28426;42.872;25.314;2023-11-22T14:01:32;25.27;;;15.90;;
42770;SDS011;28426;42.872;25.314;2023-11-22T14:04:03;21.02;;;14.48;;
42770;SDS011;28426;42.872;25.314;2023-11-22T14:06:37;22.27;;;13.43;;
42770;SDS011;28426;42.872;25.314;2023-11-22T14:09:08;26.17;;;14.02;;
42770;SDS011;28426;42.872;25.314;2023-11-22T14:11:40;22.42;;;13.95;;
42770;SDS011;28426;42.872;25.314;2023-11-22T14:14:11;27.92;;;14.23;;
42770;SDS011;28426;42.872;25.314;2023-11-22T14:16:43;25.50;;;13.73;;
42770;SDS011;28426;42.872;25.314;2023-11-22T14:19:16;32.90;;;14.90;;
42770;SDS011;28426;42.872;25.314;2023-11-22T14:21:49;29.00;;;14.98;;
42770;SDS011;28426;42.872;25.314;2023-11-22T14:24:20;23.70;;;14.35;;
42770;SDS011;28426;42.872;25.314;2023-11-22T14:26:51;23.77;;;14.13;;
42770;SDS011;28426;42.872;25.314;2023-11-22T14:29:22;24.83;;;14.70;;
42770;SDS011;28426;42.872;25.314;2023-11-22T14:31:54;26.02;;;14.68;;
42770;SDS011;28426;42.872;25.314;2023-11-22T14:34:25;28.33;;;17.92;;
42770;SDS011;28426;42.872;25.314;2023-11-22T14:36:59;31.17;;;21.58;;
42770;SDS011;28426;42.872;25.314;2023-11-22T14:39:30;26.48;;;18.40;;
42770;SDS011;28426;42.872;25.314;2023-11-22T14:42:04;28.80;;;16.60;;